createdAt,value
2023-05-12T00:03:02.721Z,18.40
2023-05-12T00:08:02.337Z,18.40
2023-05-12T00:13:00.589Z,18.30
2023-05-12T00:17:58.838Z,18.30
2023-05-12T00:22:58.135Z,18.30
2023-05-12T00:27:57.704Z,18.20
2023-05-12T00:32:55.970Z,18.20
2023-05-12T00:37:54.405Z,18.10
2023-05-12T00:42:52.627Z,18.00
2023-05-12T00:47:53.509Z,18.00
2023-05-12T00:52:52.082Z,17.90
2023-05-12T00:57:50.809Z,17.90
2023-05-12T01:02:49.477Z,17.80
2023-05-12T01:07:50.606Z,17.70
2023-05-12T01:12:49.737Z,17.70
2023-05-12T01:17:54.148Z,17.60
2023-05-12T01:22:55.164Z,17.60
2023-05-12T01:27:55.687Z,17.50
2023-05-12T01:32:54.745Z,17.40
2023-05-12T01:37:52.973Z,17.40
2023-05-12T01:42:51.361Z,17.30
2023-05-12T01:47:51.473Z,17.30
2023-05-12T01:52:49.897Z,17.30
2023-05-12T01:57:49.971Z,17.20
2023-05-12T02:02:48.577Z,17.20
2023-05-12T02:07:49.812Z,17.20
2023-05-12T02:12:48.684Z,17.20
2023-05-12T02:17:47.197Z,17.20
2023-05-12T02:22:48.800Z,17.10
2023-05-12T02:27:47.133Z,17.10
2023-05-12T02:32:47.104Z,17.10
2023-05-12T02:37:45.694Z,17.00
2023-05-12T02:42:46.020Z,17.00
2023-05-12T02:47:44.207Z,16.90
2023-05-12T02:52:42.725Z,16.80
2023-05-12T02:57:41.394Z,16.70
2023-05-12T03:02:41.876Z,16.60
2023-05-12T03:07:40.049Z,16.50
2023-05-12T03:12:38.681Z,16.40
2023-05-12T03:17:37.081Z,16.30
2023-05-12T03:22:37.402Z,16.10
2023-05-12T03:27:36.160Z,16.00
2023-05-12T03:32:35.130Z,15.90
2023-05-12T03:37:33.450Z,15.80
2023-05-12T03:42:33.181Z,15.80
2023-05-12T03:47:31.523Z,15.70
2023-05-12T03:52:29.798Z,15.70
2023-05-12T03:57:28.058Z,15.60
2023-05-12T04:02:28.503Z,15.60
2023-05-12T04:07:26.926Z,15.60
2023-05-12T04:12:25.023Z,15.60
2023-05-12T04:17:23.806Z,15.50
2023-05-12T04:22:25.883Z,15.50
2023-05-12T04:27:24.750Z,15.40
2023-05-12T04:32:23.074Z,15.40
2023-05-12T04:37:22.391Z,15.40
2023-05-12T04:42:22.342Z,15.30
2023-05-12T04:47:20.788Z,15.30
2023-05-12T04:52:19.078Z,15.30
2023-05-12T04:57:17.631Z,15.40
2023-05-12T05:02:17.623Z,15.50
2023-05-12T05:07:16.642Z,15.60
2023-05-12T05:12:14.917Z,15.50
2023-05-12T05:17:13.355Z,15.70
2023-05-12T05:22:13.400Z,15.90
2023-05-12T05:27:12.711Z,16.10
2023-05-12T05:32:10.971Z,16.40
2023-05-12T05:37:10.341Z,16.50
2023-05-12T05:42:10.058Z,16.70
2023-05-12T05:47:08.486Z,17.00
2023-05-12T05:52:07.180Z,17.20
2023-05-12T05:57:06.049Z,17.40
2023-05-12T06:02:06.684Z,17.60
2023-05-12T06:07:05.123Z,17.60
2023-05-12T06:12:03.429Z,17.70
2023-05-12T06:17:01.507Z,17.80
2023-05-12T06:22:00.950Z,18.00
2023-05-12T06:26:59.169Z,18.10
2023-05-12T06:31:57.408Z,18.30
2023-05-12T06:36:55.771Z,18.40
2023-05-12T06:41:56.762Z,18.70
2023-05-12T06:46:55.074Z,18.90
2023-05-12T06:51:53.292Z,19.00
2023-05-12T06:56:51.468Z,19.20
2023-05-12T07:01:51.106Z,19.50
2023-05-12T07:06:49.117Z,19.80
2023-05-12T07:11:47.953Z,20.00
2023-05-12T07:16:46.903Z,20.20
2023-05-12T07:21:46.296Z,20.20
2023-05-12T07:26:44.564Z,20.40
2023-05-12T07:31:42.952Z,20.70
2023-05-12T07:36:41.150Z,21.00
2023-05-12T07:41:40.740Z,21.20
2023-05-12T07:46:39.240Z,21.50
2023-05-12T07:51:37.839Z,21.60
2023-05-12T07:56:36.217Z,21.70
2023-05-12T08:01:36.089Z,21.70
2023-05-12T08:06:34.399Z,21.80
2023-05-12T08:11:32.592Z,22.00
2023-05-12T08:16:31.015Z,22.20
2023-05-12T08:21:31.866Z,22.00
2023-05-12T08:26:29.872Z,22.20
2023-05-12T08:31:28.554Z,22.40
2023-05-12T08:36:26.809Z,22.70
2023-05-12T08:41:37.949Z,22.80
2023-05-12T08:46:36.543Z,22.50
2023-05-12T08:51:37.997Z,22.30
2023-05-12T09:01:43.035Z,23.10
2023-05-12T09:06:41.148Z,23.50
2023-05-12T09:11:42.493Z,23.80
2023-05-12T09:16:44.111Z,23.90
2023-05-12T09:21:42.764Z,24.30
2023-05-12T09:26:50.182Z,24.90
2023-05-12T09:31:52.126Z,26.00
2023-05-12T09:36:57.613Z,27.00
2023-05-12T09:41:57.181Z,27.60
2023-05-12T09:46:55.486Z,28.10
2023-05-12T09:51:54.494Z,28.00
2023-05-12T09:56:54.049Z,28.50
2023-05-12T10:01:54.381Z,28.90
2023-05-12T10:06:53.635Z,28.80
2023-05-12T10:11:54.174Z,29.00
2023-05-12T10:16:55.411Z,29.10
2023-05-12T10:21:54.598Z,28.60
2023-05-12T10:26:54.253Z,28.20
2023-05-12T10:31:53.878Z,27.90
2023-05-12T10:36:54.279Z,28.10
2023-05-12T10:42:02.108Z,28.50
2023-05-12T10:47:01.741Z,28.90
2023-05-12T10:52:01.185Z,28.70
2023-05-12T10:57:00.691Z,28.50
2023-05-12T11:02:04.049Z,28.20
2023-05-12T11:07:06.202Z,27.60
2023-05-12T11:12:04.945Z,26.70
2023-05-12T11:17:05.043Z,26.30
2023-05-12T11:22:07.445Z,27.10
2023-05-12T11:27:06.574Z,27.50
2023-05-12T11:32:06.732Z,27.90
2023-05-12T11:37:06.713Z,28.10
2023-05-12T11:42:12.960Z,28.30
2023-05-12T11:47:16.062Z,28.00
2023-05-12T11:52:15.029Z,28.30
2023-05-12T11:57:13.265Z,28.50
2023-05-12T12:02:22.654Z,28.70
2023-05-12T12:07:30.360Z,28.60
2023-05-12T12:12:28.573Z,28.20
2023-05-12T12:17:31.004Z,28.30
2023-05-12T12:22:33.971Z,28.40
2023-05-12T12:27:32.035Z,28.70
2023-05-12T12:32:31.658Z,29.00
2023-05-12T12:37:30.058Z,29.00
2023-05-12T12:42:28.149Z,29.00
2023-05-12T12:47:26.337Z,28.90
2023-05-12T12:52:26.122Z,29.00
2023-05-12T12:57:24.339Z,29.00
2023-05-12T13:02:22.767Z,28.90
2023-05-12T13:07:21.054Z,28.90
2023-05-12T13:12:20.850Z,28.80
2023-05-12T13:17:19.101Z,28.80
2023-05-12T13:22:17.106Z,28.70
2023-05-12T13:27:15.516Z,28.50
2023-05-12T13:32:16.373Z,28.40
2023-05-12T13:37:14.598Z,28.20
2023-05-12T13:42:12.834Z,28.60
2023-05-12T13:47:11.031Z,28.70
2023-05-12T13:52:10.422Z,28.20
2023-05-12T13:57:08.932Z,27.70
2023-05-12T14:02:09.864Z,27.80
2023-05-12T14:07:08.878Z,27.20
2023-05-12T14:12:09.581Z,26.90
2023-05-12T14:17:07.766Z,26.90
2023-05-12T14:22:15.568Z,26.80
2023-05-12T14:27:24.978Z,26.50
2023-05-12T14:32:22.979Z,26.40
2023-05-12T14:37:21.088Z,26.60
2023-05-12T14:42:20.023Z,26.90
2023-05-12T14:47:19.626Z,27.30
2023-05-12T14:52:17.986Z,27.80
2023-05-12T14:57:16.516Z,28.00
2023-05-12T15:02:14.765Z,27.70
2023-05-12T15:07:14.351Z,27.50
2023-05-12T15:12:12.382Z,27.60
2023-05-12T15:17:10.661Z,27.60
2023-05-12T15:22:08.888Z,27.40
2023-05-12T15:27:09.008Z,27.30
2023-05-12T15:32:07.988Z,27.10
2023-05-12T15:37:06.759Z,26.90
2023-05-12T15:42:07.376Z,26.60
2023-05-12T15:47:07.654Z,26.70
2023-05-12T15:52:06.317Z,27.10
2023-05-12T15:57:04.546Z,27.40
2023-05-12T16:02:02.833Z,27.60
2023-05-12T16:07:02.228Z,27.80
2023-05-12T16:12:01.249Z,27.80
2023-05-12T16:16:59.335Z,27.40
2023-05-12T16:21:58.460Z,27.20
2023-05-12T16:26:58.758Z,27.20
2023-05-12T16:31:56.861Z,27.10
2023-05-12T16:36:54.906Z,26.80
2023-05-12T16:41:52.927Z,26.40
2023-05-12T16:46:52.484Z,26.20
2023-05-12T16:51:50.677Z,26.00
2023-05-12T16:56:49.590Z,26.00
2023-05-12T17:01:48.008Z,25.80
2023-05-12T17:06:48.582Z,25.80
2023-05-12T17:11:46.633Z,25.80
2023-05-12T17:16:45.789Z,25.60
2023-05-12T17:21:43.842Z,25.40
2023-05-12T17:26:43.432Z,25.00
2023-05-12T17:31:41.648Z,24.70
2023-05-12T17:36:39.871Z,24.40
2023-05-12T17:41:38.052Z,24.20
2023-05-12T17:46:37.735Z,23.90
2023-05-12T17:51:36.278Z,23.70
2023-05-12T17:56:34.692Z,23.70
2023-05-12T18:01:32.951Z,23.50
2023-05-12T18:06:33.294Z,23.30
2023-05-12T18:11:31.492Z,23.10
2023-05-12T18:16:29.950Z,23.00
2023-05-12T18:21:28.032Z,22.80
2023-05-12T18:26:28.027Z,22.70
2023-05-12T18:31:27.033Z,22.50
2023-05-12T18:36:25.271Z,22.50
2023-05-12T18:41:23.515Z,22.40
2023-05-12T18:46:23.074Z,22.30
2023-05-12T18:51:21.104Z,22.20
2023-05-12T18:56:19.448Z,22.00
2023-05-12T19:01:18.167Z,21.90
2023-05-12T19:06:18.280Z,21.80
2023-05-12T19:11:16.573Z,21.70
2023-05-12T19:16:14.760Z,21.60
2023-05-12T19:21:13.795Z,21.40
2023-05-12T19:26:13.341Z,21.40
2023-05-12T19:31:11.548Z,21.30
2023-05-12T19:36:11.314Z,21.20
2023-05-12T19:41:09.488Z,21.10
2023-05-12T19:46:09.381Z,21.10
2023-05-12T19:51:07.629Z,21.00
2023-05-12T19:56:05.746Z,21.00
2023-05-12T20:01:04.194Z,20.90
2023-05-12T20:06:03.833Z,20.80
2023-05-12T20:11:02.054Z,20.70
2023-05-12T20:16:00.468Z,20.60
2023-05-12T20:20:58.739Z,20.50
2023-05-12T20:25:58.378Z,20.40
2023-05-12T20:30:56.473Z,20.30
2023-05-12T20:35:54.894Z,20.30
2023-05-12T20:40:53.228Z,20.20
2023-05-12T20:45:52.832Z,20.20
2023-05-12T20:50:50.940Z,20.10
2023-05-12T20:55:49.403Z,20.10
2023-05-12T21:00:47.574Z,20.00
2023-05-12T21:05:49.168Z,20.00
2023-05-12T21:10:48.264Z,19.90
2023-05-12T21:15:46.506Z,19.80
2023-05-12T21:20:45.951Z,19.70
2023-05-12T21:25:44.163Z,19.70
2023-05-12T21:30:42.218Z,19.60
2023-05-12T21:35:41.279Z,19.60
2023-05-12T21:40:40.865Z,19.50
2023-05-12T21:45:39.103Z,19.40
2023-05-12T21:50:37.167Z,19.30
2023-05-12T21:55:35.646Z,19.20
2023-05-12T22:00:35.220Z,19.20
2023-05-12T22:05:33.452Z,19.10
2023-05-12T22:10:31.910Z,19.10
2023-05-12T22:15:30.332Z,19.10
2023-05-12T22:20:29.937Z,19.00
2023-05-12T22:25:27.979Z,18.90
2023-05-12T22:30:26.355Z,18.90
2023-05-12T22:35:24.535Z,18.80
2023-05-12T22:40:24.399Z,18.80
2023-05-12T22:50:38.105Z,18.70
2023-05-12T22:55:37.696Z,18.60
2023-05-12T23:00:36.598Z,18.50
2023-05-12T23:05:34.952Z,18.50
2023-05-12T23:10:32.990Z,18.40
2023-05-12T23:15:32.617Z,18.30
2023-05-12T23:20:31.773Z,18.20
2023-05-12T23:25:29.795Z,18.20
2023-05-12T23:30:32.073Z,18.10
2023-05-12T23:35:31.568Z,18.10
2023-05-12T23:40:29.791Z,18.00
2023-05-12T23:45:28.337Z,17.90
2023-05-12T23:50:26.646Z,17.90
2023-05-12T23:55:26.091Z,17.90
